createdAt,value
2019-04-30T00:01:42.179Z,71.10
2019-04-30T00:03:50.486Z,71.10
2019-04-30T00:05:57.339Z,71.40
2019-04-30T00:07:59.929Z,71.40
2019-04-30T00:10:06.036Z,71.40
2019-04-30T00:12:09.129Z,71.50
2019-04-30T00:14:12.387Z,71.60
2019-04-30T00:16:15.617Z,71.60
2019-04-30T00:18:18.853Z,72.50
2019-04-30T00:20:22.106Z,71.70
2019-04-30T00:22:33.419Z,71.60
2019-04-30T00:24:30.337Z,71.70
2019-04-30T00:26:35.298Z,71.80
2019-04-30T00:28:43.624Z,71.80
2019-04-30T00:30:47.708Z,71.80
2019-04-30T00:32:49.478Z,71.60
2019-04-30T00:34:52.726Z,71.80
2019-04-30T00:36:56.080Z,71.80
2019-04-30T00:38:59.364Z,71.80
2019-04-30T00:41:06.783Z,71.90
2019-04-30T00:43:08.974Z,72.00
2019-04-30T00:45:12.553Z,72.10
2019-04-30T00:47:15.786Z,71.90
2019-04-30T00:49:23.059Z,71.80
2019-04-30T00:51:26.218Z,71.60
2019-04-30T00:53:28.968Z,71.70
2019-04-30T00:55:32.230Z,71.50
2019-04-30T00:57:37.344Z,71.20
2019-04-30T00:59:44.631Z,71.50
2019-04-30T01:01:48.111Z,71.70
2019-04-30T01:03:58.733Z,71.70
2019-04-30T01:06:02.050Z,71.70
2019-04-30T01:08:07.081Z,71.70
2019-04-30T01:10:12.003Z,71.60
2019-04-30T01:12:19.138Z,71.70
2019-04-30T01:14:23.171Z,71.70
2019-04-30T01:16:30.226Z,71.70
2019-04-30T01:18:32.163Z,71.70
2019-04-30T01:20:35.561Z,71.90
2019-04-30T01:22:38.915Z,71.90
2019-04-30T01:24:42.809Z,72.00
2019-04-30T01:26:46.085Z,71.80
2019-04-30T01:28:49.474Z,71.90
2019-04-30T01:30:53.976Z,71.70
2019-04-30T01:32:58.838Z,71.30
2019-04-30T01:35:02.862Z,72.00
2019-04-30T01:37:06.148Z,71.70
2019-04-30T01:39:09.523Z,72.10
2019-04-30T01:41:12.778Z,72.00
2019-04-30T01:43:16.046Z,72.00
2019-04-30T01:45:23.153Z,72.10
2019-04-30T01:47:27.759Z,72.10
2019-04-30T01:49:41.565Z,71.80
2019-04-30T01:51:34.212Z,71.70
2019-04-30T01:53:38.769Z,71.80
2019-04-30T01:55:43.833Z,71.80
2019-04-30T01:57:49.127Z,71.90
2019-04-30T02:00:02.875Z,71.80
2019-04-30T02:02:06.254Z,71.90
2019-04-30T02:04:09.538Z,72.00
2019-04-30T02:06:12.829Z,72.10
2019-04-30T02:08:16.084Z,72.20
2019-04-30T02:10:19.342Z,72.40
2019-04-30T02:12:22.609Z,72.50
2019-04-30T02:14:25.853Z,72.40
2019-04-30T02:16:29.124Z,72.40
2019-04-30T02:18:32.435Z,72.20
2019-04-30T02:20:35.696Z,72.40
2019-04-30T02:22:39.103Z,72.20
2019-04-30T02:24:42.398Z,72.10
2019-04-30T02:26:45.626Z,72.30
2019-04-30T02:28:49.511Z,73.10
2019-04-30T02:30:52.909Z,72.60
2019-04-30T02:32:56.550Z,72.50
2019-04-30T02:35:11.274Z,72.50
2019-04-30T02:37:16.160Z,72.70
2019-04-30T02:39:20.399Z,72.50
2019-04-30T02:41:23.839Z,72.50
2019-04-30T02:43:27.102Z,72.50
2019-04-30T02:45:30.358Z,72.40
2019-04-30T02:47:33.619Z,72.30
2019-04-30T02:49:39.668Z,72.20
2019-04-30T02:51:41.865Z,72.30
2019-04-30T02:54:00.580Z,72.30
2019-04-30T02:56:04.024Z,72.20
2019-04-30T02:58:09.494Z,72.20
2019-04-30T03:00:20.008Z,72.50
2019-04-30T03:02:21.741Z,72.40
2019-04-30T03:04:25.031Z,72.40
2019-04-30T03:06:30.305Z,72.40
2019-04-30T03:08:33.286Z,72.50
2019-04-30T03:10:36.587Z,73.30
2019-04-30T03:12:40.457Z,73.30
2019-04-30T03:14:44.162Z,72.60
2019-04-30T03:16:54.592Z,72.50
2019-04-30T03:18:59.652Z,72.30
2019-04-30T03:21:09.640Z,72.30
2019-04-30T03:23:12.298Z,72.70
2019-04-30T03:25:15.577Z,72.70
2019-04-30T03:27:20.698Z,72.70
2019-04-30T03:29:24.213Z,72.30
2019-04-30T03:31:32.023Z,72.20
2019-04-30T03:33:33.144Z,72.40
2019-04-30T03:35:36.597Z,72.20
2019-04-30T03:37:39.850Z,72.40
2019-04-30T03:39:43.109Z,72.70
2019-04-30T03:41:46.358Z,72.40
2019-04-30T03:43:50.266Z,72.20
2019-04-30T03:45:53.858Z,72.40
2019-04-30T03:47:59.588Z,72.30
2019-04-30T03:50:02.130Z,72.30
2019-04-30T03:52:05.386Z,72.60
2019-04-30T03:54:10.066Z,72.40
2019-04-30T03:56:13.781Z,72.40
2019-04-30T03:58:20.792Z,72.30
2019-04-30T04:00:30.034Z,72.10
2019-04-30T04:02:35.068Z,72.00
2019-04-30T04:04:39.978Z,72.30
2019-04-30T04:07:00.282Z,72.10
2019-04-30T04:09:22.543Z,72.30
2019-04-30T04:11:29.578Z,72.00
2019-04-30T04:13:33.196Z,71.80
2019-04-30T04:15:36.597Z,71.80
2019-04-30T04:17:40.000Z,71.80
2019-04-30T04:19:43.370Z,71.70
2019-04-30T04:21:46.656Z,71.90
2019-04-30T04:23:50.087Z,71.70
2019-04-30T04:25:53.361Z,71.80
2019-04-30T04:27:56.704Z,71.90
2019-04-30T04:30:01.212Z,71.70
2019-04-30T04:32:04.688Z,71.80
2019-04-30T04:34:09.294Z,72.10
2019-04-30T04:36:12.800Z,72.20
2019-04-30T04:38:16.046Z,72.10
2019-04-30T04:40:20.946Z,72.10
2019-04-30T04:42:24.464Z,72.10
2019-04-30T04:44:29.443Z,72.00
2019-04-30T04:46:32.879Z,72.00
2019-04-30T04:48:36.205Z,72.00
2019-04-30T04:50:39.948Z,71.80
2019-04-30T04:52:43.626Z,71.70
2019-04-30T04:54:46.877Z,71.70
2019-04-30T04:56:53.339Z,71.60
2019-04-30T04:58:55.118Z,71.70
2019-04-30T05:00:59.228Z,71.90
2019-04-30T05:03:04.358Z,71.70
2019-04-30T05:05:09.672Z,71.80
2019-04-30T05:07:13.138Z,71.70
2019-04-30T05:09:16.397Z,71.90
2019-04-30T05:11:19.649Z,72.10
2019-04-30T05:13:22.918Z,72.40
2019-04-30T05:15:26.149Z,72.50
2019-04-30T05:17:31.974Z,72.40
2019-04-30T05:19:34.418Z,72.20
2019-04-30T05:21:42.838Z,72.20
2019-04-30T05:23:42.797Z,72.10
2019-04-30T05:25:46.107Z,72.10
2019-04-30T05:27:49.762Z,72.20
2019-04-30T05:29:53.545Z,72.30
2019-04-30T05:31:58.885Z,72.40
2019-04-30T05:34:02.421Z,72.30
2019-04-30T05:36:09.326Z,72.30
2019-04-30T05:38:13.060Z,72.10
2019-04-30T05:40:18.849Z,72.00
2019-04-30T05:42:24.660Z,71.70
2019-04-30T05:44:29.733Z,71.70
2019-04-30T05:46:33.205Z,71.90
2019-04-30T05:48:36.513Z,71.90
2019-04-30T05:50:39.797Z,71.90
2019-04-30T05:52:43.151Z,71.70
2019-04-30T05:54:48.558Z,71.80
2019-04-30T05:56:51.934Z,72.50
2019-04-30T05:58:55.875Z,71.80
2019-04-30T06:00:59.899Z,71.80
2019-04-30T06:03:03.790Z,71.60
2019-04-30T06:05:08.731Z,71.50
2019-04-30T06:07:12.333Z,71.60
2019-04-30T06:09:33.637Z,71.40
2019-04-30T06:11:36.156Z,71.50
2019-04-30T06:13:49.081Z,71.10
2019-04-30T06:15:54.012Z,71.20
2019-04-30T06:18:02.440Z,70.90
2019-04-30T06:20:02.302Z,70.70
2019-04-30T06:22:08.632Z,71.10
2019-04-30T06:24:11.440Z,71.20
2019-04-30T06:26:15.286Z,71.50
2019-04-30T06:28:19.593Z,72.10
2019-04-30T06:30:23.068Z,70.80
2019-04-30T06:32:26.330Z,70.40
2019-04-30T06:34:30.245Z,70.70
2019-04-30T06:36:33.488Z,70.50
2019-04-30T06:38:38.581Z,70.90
2019-04-30T06:40:42.957Z,70.60
2019-04-30T06:42:46.213Z,70.90
2019-04-30T06:44:49.658Z,70.60
2019-04-30T06:46:52.954Z,70.50
2019-04-30T06:48:56.215Z,70.20
2019-04-30T06:50:59.481Z,70.00
2019-04-30T06:53:02.720Z,69.70
2019-04-30T06:55:06.005Z,69.60
2019-04-30T06:57:09.744Z,69.30
2019-04-30T06:59:14.203Z,69.70
2019-04-30T07:01:20.395Z,69.50
2019-04-30T07:03:23.636Z,69.50
2019-04-30T07:05:28.588Z,69.40
2019-04-30T07:07:39.062Z,69.20
2019-04-30T07:09:51.994Z,69.20
2019-04-30T07:12:03.262Z,69.00
2019-04-30T07:14:06.611Z,69.00
2019-04-30T07:16:11.021Z,68.90
2019-04-30T07:18:14.405Z,69.40
2019-04-30T07:20:19.167Z,68.90
2019-04-30T07:24:29.467Z,69.00
2019-04-30T07:26:32.658Z,68.80
2019-04-30T07:30:40.974Z,68.60
2019-04-30T07:32:44.356Z,68.50
2019-04-30T07:34:49.293Z,68.00
2019-04-30T07:37:10.810Z,68.00
2019-04-30T07:38:59.883Z,67.90
2019-04-30T07:41:02.575Z,68.20
2019-04-30T07:43:05.857Z,68.30
2019-04-30T07:45:09.669Z,68.20
2019-04-30T07:47:13.206Z,68.60
2019-04-30T07:49:16.523Z,67.80
2019-04-30T07:53:24.770Z,67.70
2019-04-30T07:55:29.497Z,68.00
2019-04-30T07:57:32.927Z,67.90
2019-04-30T07:59:36.166Z,67.90
2019-04-30T08:01:58.136Z,67.90
2019-04-30T08:03:52.345Z,68.70
2019-04-30T08:05:59.636Z,67.60
2019-04-30T08:08:20.112Z,67.60
2019-04-30T08:09:33.038Z,68.90
2019-04-30T08:09:34.156Z,68.30
2019-04-30T08:09:38.450Z,67.90
2019-04-30T08:10:08.730Z,66.90
2019-04-30T08:12:22.159Z,66.50
2019-04-30T08:14:18.777Z,66.80
2019-04-30T08:16:22.110Z,66.90
2019-04-30T08:18:25.373Z,66.80
2019-04-30T08:20:29.531Z,66.20
2019-04-30T08:22:32.944Z,65.50
2019-04-30T08:24:36.255Z,64.80
2019-04-30T08:26:39.817Z,64.80
2019-04-30T08:28:43.167Z,65.60
2019-04-30T08:30:46.430Z,65.40
2019-04-30T08:32:50.058Z,65.40
2019-04-30T08:34:53.424Z,65.20
2019-04-30T08:36:56.666Z,64.40
2019-04-30T08:38:59.926Z,64.30
2019-04-30T08:41:03.184Z,64.70
2019-04-30T08:43:06.441Z,64.70
2019-04-30T08:45:09.706Z,65.50
2019-04-30T08:47:12.936Z,65.10
2019-04-30T08:49:16.448Z,64.10
2019-04-30T08:51:20.542Z,63.60
2019-04-30T08:53:29.393Z,63.90
2019-04-30T08:55:30.396Z,64.00
2019-04-30T08:57:34.026Z,64.30
2019-04-30T08:59:39.365Z,63.70
2019-04-30T09:01:42.303Z,62.70
2019-04-30T09:03:45.565Z,63.30
2019-04-30T09:05:50.626Z,62.60
2019-04-30T09:07:53.852Z,62.50
2019-04-30T09:09:58.508Z,62.90
2019-04-30T09:12:02.081Z,62.60
2019-04-30T09:14:05.350Z,62.50
2019-04-30T09:16:09.321Z,61.30
2019-04-30T09:18:12.811Z,60.90
2019-04-30T09:20:16.066Z,61.20
2019-04-30T09:22:19.648Z,60.10
2019-04-30T09:24:22.942Z,60.40
2019-04-30T09:26:26.185Z,61.00
2019-04-30T09:28:29.537Z,61.10
2019-04-30T09:30:35.838Z,60.10
2019-04-30T09:32:39.097Z,60.00
2019-04-30T09:34:42.419Z,59.50
2019-04-30T09:36:45.657Z,59.00
2019-04-30T09:38:48.920Z,59.10
2019-04-30T09:40:52.170Z,58.90
2019-04-30T09:42:55.447Z,59.10
2019-04-30T09:44:59.635Z,58.90
2019-04-30T09:47:03.090Z,58.60
2019-04-30T09:49:06.394Z,58.70
2019-04-30T09:51:13.049Z,58.10
2019-04-30T09:53:16.853Z,58.20
2019-04-30T09:55:20.305Z,57.20
2019-04-30T09:57:23.581Z,56.90
2019-04-30T09:59:28.957Z,57.10
2019-04-30T10:01:32.922Z,57.20
2019-04-30T10:03:37.570Z,57.20
2019-04-30T10:05:41.571Z,57.10
2019-04-30T10:07:44.805Z,55.60
2019-04-30T10:09:50.696Z,55.10
2019-04-30T10:12:07.003Z,55.70
2019-04-30T10:14:10.315Z,54.10
2019-04-30T10:16:15.217Z,53.90
2019-04-30T10:18:18.465Z,54.30
2019-04-30T10:20:24.967Z,54.30
2019-04-30T10:22:28.234Z,55.00
2019-04-30T10:24:31.492Z,54.00
2019-04-30T10:26:34.935Z,53.50
2019-04-30T10:28:40.287Z,53.80
2019-04-30T10:30:43.520Z,54.00
2019-04-30T10:32:49.932Z,53.60
2019-04-30T10:34:51.768Z,54.30
2019-04-30T10:36:55.026Z,53.70
2019-04-30T10:38:59.546Z,53.10
2019-04-30T10:41:03.030Z,53.10
2019-04-30T10:43:06.383Z,52.50
2019-04-30T10:45:09.986Z,52.10
2019-04-30T10:47:13.757Z,51.20
2019-04-30T10:49:18.944Z,50.00
2019-04-30T10:51:21.961Z,49.80
2019-04-30T10:53:25.246Z,49.20
2019-04-30T10:55:28.721Z,50.60
2019-04-30T10:57:33.457Z,49.90
2019-04-30T10:59:36.756Z,50.00
2019-04-30T11:01:40.039Z,50.50
2019-04-30T11:03:43.306Z,49.70
2019-04-30T11:05:46.535Z,49.50
2019-04-30T11:07:49.804Z,49.50
2019-04-30T11:09:53.050Z,48.00
2019-04-30T11:11:56.285Z,48.00
2019-04-30T11:13:59.546Z,48.20
2019-04-30T11:16:12.438Z,47.60
2019-04-30T11:18:07.882Z,47.70
2019-04-30T11:20:11.296Z,47.80
2019-04-30T11:22:15.000Z,47.50
2019-04-30T11:24:19.605Z,47.20
2019-04-30T11:26:23.450Z,47.50
2019-04-30T11:28:27.712Z,47.10
2019-04-30T11:30:31.636Z,46.50
2019-04-30T11:32:35.339Z,47.20
2019-04-30T11:34:38.911Z,47.60
2019-04-30T11:36:42.221Z,46.10
2019-04-30T11:38:45.491Z,45.80
2019-04-30T11:40:48.799Z,45.00
2019-04-30T11:42:52.057Z,45.40
2019-04-30T11:44:55.333Z,46.20
2019-04-30T11:47:09.516Z,45.70
2019-04-30T11:49:13.026Z,44.90
2019-04-30T11:51:16.288Z,44.40
2019-04-30T11:53:25.357Z,44.80
2019-04-30T11:55:24.572Z,45.00
2019-04-30T11:57:29.831Z,43.90
2019-04-30T11:59:33.271Z,43.20
2019-04-30T12:01:36.824Z,43.10
2019-04-30T12:03:40.081Z,42.90
2019-04-30T12:05:43.373Z,42.40
2019-04-30T12:07:50.907Z,42.40
2019-04-30T12:10:05.157Z,42.40
2019-04-30T12:12:09.139Z,42.30
2019-04-30T12:14:12.607Z,42.00
2019-04-30T12:16:15.893Z,40.90
2019-04-30T12:18:19.129Z,42.60
2019-04-30T12:20:22.405Z,42.00
2019-04-30T12:22:25.660Z,42.10
2019-04-30T12:24:30.404Z,41.90
2019-04-30T12:26:33.944Z,41.60
2019-04-30T12:28:37.186Z,41.60
2019-04-30T12:30:40.484Z,42.20
2019-04-30T12:32:43.719Z,42.60
2019-04-30T12:34:46.963Z,42.10
2019-04-30T12:36:50.220Z,41.60
2019-04-30T12:38:55.109Z,40.70
2019-04-30T12:40:58.389Z,40.00
2019-04-30T12:43:01.659Z,39.50
2019-04-30T12:45:09.381Z,39.60
2019-04-30T12:47:12.446Z,39.30
2019-04-30T12:49:15.682Z,39.90
2019-04-30T12:51:45.548Z,39.00
2019-04-30T12:53:55.653Z,37.70
2019-04-30T12:56:09.925Z,38.90
2019-04-30T12:58:13.333Z,39.90
2019-04-30T13:00:16.645Z,40.00
2019-04-30T13:02:19.929Z,39.60
2019-04-30T13:04:23.242Z,38.80
2019-04-30T13:06:27.198Z,38.40
2019-04-30T13:08:31.477Z,38.20
2019-04-30T13:10:35.511Z,38.00
2019-04-30T13:12:39.634Z,38.70
2019-04-30T13:14:51.481Z,38.20
2019-04-30T13:16:49.052Z,36.70
2019-04-30T13:18:52.393Z,35.90
2019-04-30T13:20:58.856Z,36.70
2019-04-30T13:23:00.699Z,37.30
2019-04-30T13:25:04.736Z,36.90
2019-04-30T13:27:09.461Z,36.30
2019-04-30T13:29:17.442Z,35.40
2019-04-30T13:31:20.775Z,35.50
2019-04-30T13:33:28.854Z,35.60
2019-04-30T13:35:32.341Z,35.20
2019-04-30T13:37:38.934Z,35.10
2019-04-30T13:39:52.895Z,35.50
2019-04-30T13:42:17.518Z,35.50
2019-04-30T13:44:21.162Z,35.10
2019-04-30T13:46:24.981Z,33.60
2019-04-30T13:48:28.249Z,33.50
2019-04-30T13:50:31.485Z,34.60
2019-04-30T13:52:34.768Z,33.70
2019-04-30T13:54:38.017Z,33.50
2019-04-30T13:56:41.260Z,33.50
2019-04-30T13:58:44.553Z,33.50
2019-04-30T14:00:49.448Z,33.80
2019-04-30T14:03:00.887Z,32.30
2019-04-30T14:05:15.088Z,31.70
2019-04-30T14:07:36.202Z,32.00
2019-04-30T14:09:39.567Z,33.50
2019-04-30T14:11:42.804Z,33.10
2019-04-30T14:13:47.793Z,32.70
2019-04-30T14:15:57.057Z,33.10
2019-04-30T14:18:03.414Z,32.90
2019-04-30T14:20:07.582Z,32.20
2019-04-30T14:22:10.946Z,32.50
2019-04-30T14:24:14.212Z,32.10
2019-04-30T14:26:19.266Z,32.40
2019-04-30T14:28:22.419Z,31.80
2019-04-30T14:30:25.691Z,31.50
2019-04-30T14:32:28.997Z,31.20
2019-04-30T14:34:32.259Z,31.20
2019-04-30T14:36:35.528Z,32.30
2019-04-30T14:38:40.642Z,31.50
2019-04-30T14:40:44.543Z,31.30
2019-04-30T14:42:56.137Z,31.60
2019-04-30T14:45:04.532Z,31.00
2019-04-30T14:47:16.368Z,31.10
2019-04-30T14:49:23.180Z,31.50
2019-04-30T14:51:26.753Z,30.90
2019-04-30T14:53:43.710Z,31.30
2019-04-30T14:55:51.591Z,31.80
2019-04-30T14:57:56.473Z,31.50
2019-04-30T15:00:02.178Z,31.10
2019-04-30T15:02:11.522Z,30.40
2019-04-30T15:04:14.804Z,30.40
2019-04-30T15:06:19.398Z,29.70
2019-04-30T15:08:22.676Z,29.40
2019-04-30T15:10:25.980Z,30.20
2019-04-30T15:12:29.220Z,29.00
2019-04-30T15:14:32.450Z,29.90
2019-04-30T15:16:35.735Z,30.10
2019-04-30T15:18:38.990Z,30.00
2019-04-30T15:20:42.263Z,29.50
2019-04-30T15:22:50.176Z,30.60
2019-04-30T15:24:53.413Z,31.00
2019-04-30T15:26:58.159Z,30.40
2019-04-30T15:29:09.472Z,30.60
2019-04-30T15:31:08.599Z,30.20
2019-04-30T15:33:16.241Z,30.20
2019-04-30T15:35:19.809Z,29.60
2019-04-30T15:37:23.963Z,29.90
2019-04-30T15:39:30.815Z,29.70
2019-04-30T15:41:34.130Z,29.50
2019-04-30T15:43:37.382Z,29.50
2019-04-30T15:45:40.639Z,29.20
2019-04-30T15:47:43.919Z,29.60
2019-04-30T15:49:47.185Z,29.20
2019-04-30T15:51:50.475Z,29.60
2019-04-30T15:53:53.743Z,29.90
2019-04-30T15:55:58.689Z,29.80
2019-04-30T15:58:03.600Z,29.80
2019-04-30T16:00:07.461Z,30.00
2019-04-30T16:02:15.430Z,30.00
2019-04-30T16:04:28.483Z,29.20
2019-04-30T16:06:31.440Z,29.00
2019-04-30T16:08:36.383Z,28.70
2019-04-30T16:10:50.203Z,29.50
2019-04-30T16:12:55.113Z,29.10
2019-04-30T16:14:58.363Z,29.60
2019-04-30T16:17:05.845Z,29.20
2019-04-30T16:19:09.220Z,29.20
2019-04-30T16:21:14.295Z,29.10
2019-04-30T16:23:19.129Z,28.60
2019-04-30T16:25:22.588Z,28.70
2019-04-30T16:27:25.890Z,28.70
2019-04-30T16:29:29.221Z,28.30
2019-04-30T16:31:32.522Z,28.20
2019-04-30T16:33:35.891Z,28.10
2019-04-30T16:35:39.147Z,28.00
2019-04-30T16:37:42.370Z,28.50
2019-04-30T16:39:45.646Z,28.80
2019-04-30T16:41:49.658Z,29.10
2019-04-30T16:43:53.178Z,30.00
2019-04-30T16:45:56.439Z,29.80
2019-04-30T16:47:59.739Z,29.40
2019-04-30T16:50:04.651Z,30.30
2019-04-30T16:52:09.226Z,30.50
2019-04-30T16:54:12.744Z,30.60
2019-04-30T16:56:18.847Z,31.40
2019-04-30T16:58:22.082Z,31.10
2019-04-30T17:00:25.549Z,31.70
2019-04-30T17:02:30.521Z,32.30
2019-04-30T17:04:35.479Z,32.60
2019-04-30T17:06:52.494Z,32.80
2019-04-30T17:08:57.465Z,33.60
2019-04-30T17:11:02.434Z,34.40
2019-04-30T17:13:16.122Z,34.30
2019-04-30T17:15:30.294Z,34.30
2019-04-30T17:17:33.548Z,33.90
2019-04-30T17:19:36.819Z,34.50
2019-04-30T17:21:40.111Z,34.80
2019-04-30T17:23:43.392Z,35.40
2019-04-30T17:25:47.519Z,36.20
2019-04-30T17:27:50.938Z,36.10
2019-04-30T17:29:54.200Z,36.10
2019-04-30T17:31:57.501Z,36.50
2019-04-30T17:34:00.963Z,37.30
2019-04-30T17:36:04.289Z,37.80
2019-04-30T17:38:07.601Z,38.10
2019-04-30T17:40:11.016Z,38.50
2019-04-30T17:42:14.351Z,38.60
2019-04-30T17:44:18.647Z,38.70
2019-04-30T17:46:22.212Z,39.20
2019-04-30T17:48:25.819Z,39.70
2019-04-30T17:50:29.664Z,40.30
2019-04-30T17:52:33.079Z,40.80
2019-04-30T17:54:36.450Z,41.10
2019-04-30T17:56:40.014Z,41.30
2019-04-30T17:58:43.275Z,41.10
2019-04-30T18:00:48.742Z,41.40
2019-04-30T18:02:52.182Z,41.70
2019-04-30T18:04:55.528Z,41.60
2019-04-30T18:06:59.165Z,41.80
2019-04-30T18:09:02.510Z,41.70
2019-04-30T18:11:05.905Z,42.00
2019-04-30T18:13:09.236Z,42.40
2019-04-30T18:15:14.699Z,42.40
2019-04-30T18:17:17.998Z,42.60
2019-04-30T18:19:28.666Z,43.00
2019-04-30T18:21:48.865Z,43.40
2019-04-30T18:23:53.869Z,43.40
2019-04-30T18:25:58.804Z,43.60
2019-04-30T18:28:03.645Z,44.00
2019-04-30T18:30:08.646Z,44.10
2019-04-30T18:32:11.909Z,44.50
2019-04-30T18:34:15.176Z,44.70
2019-04-30T18:36:19.488Z,44.90
2019-04-30T18:38:22.924Z,45.30
2019-04-30T18:40:26.296Z,45.30
2019-04-30T18:42:29.706Z,45.50
2019-04-30T18:44:33.056Z,45.70
2019-04-30T18:46:36.470Z,45.90
2019-04-30T18:48:39.733Z,46.00
2019-04-30T18:50:43.007Z,46.30
2019-04-30T18:52:50.351Z,46.60
2019-04-30T18:54:51.734Z,47.70
2019-04-30T18:56:55.036Z,46.90
2019-04-30T18:58:58.701Z,47.30
2019-04-30T19:01:01.950Z,47.50
2019-04-30T19:03:05.245Z,47.50
2019-04-30T19:05:10.138Z,47.50
2019-04-30T19:07:27.060Z,47.70
2019-04-30T19:09:32.024Z,48.30
2019-04-30T19:11:37.001Z,47.90
2019-04-30T19:13:50.946Z,47.90
2019-04-30T19:16:19.657Z,48.20
2019-04-30T19:18:23.236Z,48.10
2019-04-30T19:20:34.227Z,48.30
2019-04-30T19:22:37.501Z,48.50
2019-04-30T19:24:53.404Z,48.70
2019-04-30T19:26:45.791Z,48.80
2019-04-30T19:28:49.332Z,48.90
2019-04-30T19:30:58.267Z,49.10
2019-04-30T19:33:00.363Z,49.10
2019-04-30T19:35:04.564Z,49.30
2019-04-30T19:37:08.656Z,49.40
2019-04-30T19:39:13.421Z,49.50
2019-04-30T19:41:18.575Z,49.60
2019-04-30T19:43:22.147Z,49.90
2019-04-30T19:45:25.784Z,49.90
2019-04-30T19:47:30.841Z,50.10
2019-04-30T19:49:34.343Z,50.30
2019-04-30T19:51:40.068Z,50.20
2019-04-30T19:53:43.106Z,50.20
2019-04-30T19:55:46.756Z,50.00
2019-04-30T19:57:51.041Z,50.20
2019-04-30T19:59:54.524Z,50.50
2019-04-30T20:01:59.530Z,50.70
2019-04-30T20:04:03.152Z,50.90
2019-04-30T20:06:06.473Z,50.80
2019-04-30T20:08:11.134Z,50.80
2019-04-30T20:10:14.577Z,50.80
2019-04-30T20:12:18.830Z,50.80
2019-04-30T20:14:22.381Z,51.00
2019-04-30T20:16:25.691Z,51.20
2019-04-30T20:18:29.283Z,51.40
2019-04-30T20:20:34.252Z,51.20
2019-04-30T20:22:38.967Z,51.20
2019-04-30T20:24:42.382Z,51.20
2019-04-30T20:26:45.664Z,51.30
2019-04-30T20:28:52.005Z,51.60
2019-04-30T20:30:55.359Z,51.90
2019-04-30T20:32:59.418Z,51.80
2019-04-30T20:35:03.189Z,51.80
2019-04-30T20:37:08.546Z,51.70
2019-04-30T20:39:15.883Z,52.00
2019-04-30T20:41:18.672Z,52.00
2019-04-30T20:43:22.139Z,52.30
2019-04-30T20:45:25.460Z,52.50
2019-04-30T20:47:30.035Z,52.60
2019-04-30T20:49:33.551Z,52.70
2019-04-30T20:51:38.925Z,52.60
2019-04-30T20:53:41.865Z,52.40
2019-04-30T20:55:45.191Z,52.60
2019-04-30T20:57:49.488Z,52.90
2019-04-30T20:59:52.896Z,52.90
2019-04-30T21:01:56.224Z,52.90
2019-04-30T21:03:59.508Z,53.00
2019-04-30T21:06:02.791Z,53.10
2019-04-30T21:08:06.180Z,53.20
2019-04-30T21:10:10.243Z,53.30
2019-04-30T21:12:13.688Z,53.30
2019-04-30T21:14:18.669Z,53.50
2019-04-30T21:16:24.410Z,53.50
2019-04-30T21:18:31.899Z,53.60
2019-04-30T21:20:32.904Z,53.70
2019-04-30T21:22:38.856Z,53.80
2019-04-30T21:24:42.329Z,54.10
2019-04-30T21:26:45.575Z,53.90
2019-04-30T21:28:49.470Z,54.10
2019-04-30T21:30:53.117Z,54.10
2019-04-30T21:33:06.921Z,54.20
2019-04-30T21:35:28.022Z,54.20
2019-04-30T21:37:31.378Z,54.30
2019-04-30T21:39:34.657Z,54.10
2019-04-30T21:41:39.612Z,54.10
2019-04-30T21:43:43.031Z,54.20
2019-04-30T21:45:46.332Z,54.10
2019-04-30T21:47:56.209Z,54.90
2019-04-30T21:49:54.686Z,54.20
2019-04-30T21:51:57.931Z,54.10
2019-04-30T21:54:01.231Z,54.00
2019-04-30T21:56:04.534Z,54.10
2019-04-30T21:58:09.552Z,54.50
2019-04-30T22:00:15.182Z,54.40
2019-04-30T22:02:18.649Z,54.30
2019-04-30T22:04:21.990Z,54.20
2019-04-30T22:06:25.304Z,54.40
2019-04-30T22:08:28.818Z,54.50
2019-04-30T22:10:32.206Z,54.40
2019-04-30T22:12:35.472Z,54.50
2019-04-30T22:14:38.780Z,54.40
2019-04-30T22:16:42.036Z,54.50
2019-04-30T22:18:45.306Z,54.50
2019-04-30T22:20:49.833Z,54.70
2019-04-30T22:22:53.295Z,54.40
2019-04-30T22:24:56.591Z,54.30
2019-04-30T22:26:59.898Z,54.50
2019-04-30T22:29:09.242Z,54.60
2019-04-30T22:31:13.024Z,54.60
2019-04-30T22:33:16.678Z,54.90
2019-04-30T22:35:27.799Z,54.80
2019-04-30T22:37:31.172Z,54.70
2019-04-30T22:39:36.129Z,54.70
2019-04-30T22:41:39.851Z,54.90
2019-04-30T22:43:43.615Z,54.90
2019-04-30T22:45:49.899Z,55.10
2019-04-30T22:47:53.267Z,55.30
2019-04-30T22:49:56.559Z,55.30
2019-04-30T22:52:00.648Z,55.40
2019-04-30T22:54:05.817Z,55.50
2019-04-30T22:56:09.419Z,55.60
2019-04-30T22:58:12.720Z,55.50
2019-04-30T23:00:18.047Z,55.60
2019-04-30T23:02:23.983Z,55.80
2019-04-30T23:04:41.505Z,55.80
2019-04-30T23:06:47.620Z,55.80
2019-04-30T23:08:50.887Z,55.80
2019-04-30T23:10:54.249Z,55.80
2019-04-30T23:12:57.521Z,56.00
2019-04-30T23:15:00.762Z,56.30
2019-04-30T23:17:04.893Z,56.30
2019-04-30T23:19:08.141Z,56.40
2019-04-30T23:21:11.392Z,56.60
2019-04-30T23:23:14.679Z,56.60
2019-04-30T23:25:17.931Z,56.50
2019-04-30T23:27:21.181Z,56.40
2019-04-30T23:29:24.448Z,56.30
2019-04-30T23:31:27.698Z,56.40
2019-04-30T23:33:30.930Z,56.50
2019-04-30T23:35:34.162Z,56.70
2019-04-30T23:37:37.423Z,56.80
2019-04-30T23:39:40.714Z,56.90
2019-04-30T23:41:44.011Z,56.80
2019-04-30T23:43:47.287Z,56.80
2019-04-30T23:45:50.529Z,56.90
2019-04-30T23:47:53.782Z,56.80
2019-04-30T23:49:57.048Z,57.00
2019-04-30T23:52:00.295Z,56.60
2019-04-30T23:54:03.536Z,57.10
2019-04-30T23:56:06.773Z,57.30
2019-04-30T23:58:10.022Z,57.30
